Time;durP1;ratioP1;P1;durP2;ratioP2;P2;SDS_P1;SDS_P2;PMS_P1;PMS_P2;Temp;Humidity;BMP_temperature;BMP_pressure;BME280_temperature;BME280_humidity;BME280_pressure;Samples;Min_cycle;Max_cycle;Signal;HPM_P1;HPM_P2
2022/04/05 00:01:50;;;;;;;67.20;60.15;;;;;;;;;;5114881;28;20268;-88
2022/04/05 00:04:19;;;;;;;84.10;66.43;;;;;;;;;;5115008;28;20235;-89
2022/04/05 00:06:47;;;;;;;63.45;57.45;;;;;;;;;;5114923;28;20206;-87
2022/04/05 00:09:14;;;;;;;79.03;64.35;;;;;;;;;;5115004;28;20218;-88
2022/04/05 00:11:41;;;;;;;63.55;57.00;;;;;;;;;;5114902;28;20190;-89
2022/04/05 00:14:09;;;;;;;95.88;65.85;;;;;;;;;;5114925;28;20194;-88
2022/04/05 00:16:36;;;;;;;65.20;58.38;;;;;;;;;;5114761;28;20649;-86
2022/04/05 00:19:04;;;;;;;68.25;61.35;;;;;;;;;;5114443;28;20187;-88
2022/04/05 00:21:33;;;;;;;73.47;65.72;;;;;;;;;;5114711;28;20206;-88
2022/04/05 00:24:00;;;;;;;66.72;59.78;;;;;;;;;;5114872;28;20218;-89
2022/04/05 00:26:27;;;;;;;71.60;62.65;;;;;;;;;;5114827;28;20186;-88
2022/04/05 00:28:55;;;;;;;67.80;61.13;;;;;;;;;;5114377;28;20206;-88
2022/04/05 00:31:22;;;;;;;66.15;58.70;;;;;;;;;;5114158;28;20222;-89
2022/04/05 00:33:51;;;;;;;68.75;59.97;;;;;;;;;;5114302;28;20625;-88
2022/04/05 00:36:18;;;;;;;72.90;59.67;;;;;;;;;;5114771;28;20194;-88
2022/04/05 00:38:47;;;;;;;65.68;58.58;;;;;;;;;;5114491;28;20203;-88
2022/04/05 00:41:14;;;;;;;68.78;61.00;;;;;;;;;;5114567;28;20183;-88
2022/04/05 00:43:42;;;;;;;69.15;61.88;;;;;;;;;;5114577;28;20218;-89
2022/04/05 00:46:09;;;;;;;77.85;63.58;;;;;;;;;;5116311;28;20206;-88
2022/04/05 00:48:42;;;;;;;116.95;64.93;;;;;;;;;;5100564;28;20259;-87
2022/04/05 00:51:10;;;;;;;85.80;63.53;;;;;;;;;;5118687;28;20679;-89
2022/04/05 00:53:38;;;;;;;72.93;60.83;;;;;;;;;;5118957;28;20552;-89
2022/04/05 00:56:08;;;;;;;104.35;69.63;;;;;;;;;;5118403;28;20198;-89
2022/04/05 00:58:36;;;;;;;83.25;61.72;;;;;;;;;;5118853;28;20209;-89
2022/04/05 01:01:04;;;;;;;93.20;63.28;;;;;;;;;;5118292;28;20632;-88
2022/04/05 01:03:33;;;;;;;121.30;69.35;;;;;;;;;;5118301;28;20233;-89
2022/04/05 01:06:04;;;;;;;132.88;73.28;;;;;;;;;;5118183;28;20191;-89
2022/04/05 01:08:32;;;;;;;93.88;63.38;;;;;;;;;;5100386;28;20206;-88
2022/04/05 01:11:01;;;;;;;101.47;66.63;;;;;;;;;;5118474;28;20214;-90
2022/04/05 01:13:31;;;;;;;85.80;64.03;;;;;;;;;;5118327;28;20187;-90
2022/04/05 01:15:59;;;;;;;124.07;70.30;;;;;;;;;;5118440;28;20517;-89
2022/04/05 01:18:26;;;;;;;86.32;64.15;;;;;;;;;;5118089;28;20183;-89
2022/04/05 01:20:53;;;;;;;93.55;65.43;;;;;;;;;;5117995;28;20652;-87
2022/04/05 01:23:22;;;;;;;101.93;62.35;;;;;;;;;;5118389;28;20187;-87
2022/04/05 01:25:52;;;;;;;95.50;69.72;;;;;;;;;;5117762;28;20198;-89
2022/04/05 01:28:19;;;;;;;97.57;65.95;;;;;;;;;;5118007;28;20213;-88
2022/04/05 01:30:47;;;;;;;109.05;76.20;;;;;;;;;;5117891;28;20729;-88
2022/04/05 01:33:15;;;;;;;125.57;81.30;;;;;;;;;;5117732;28;20183;-89
2022/04/05 01:35:42;;;;;;;76.95;69.13;;;;;;;;;;5117888;28;20222;-89
2022/04/05 01:38:10;;;;;;;84.72;76.05;;;;;;;;;;5118053;28;20187;-89
2022/04/05 01:40:39;;;;;;;86.30;74.60;;;;;;;;;;5117707;28;20183;-88
2022/04/05 01:43:07;;;;;;;148.90;77.10;;;;;;;;;;5117463;28;20694;-89
2022/04/05 01:45:36;;;;;;;73.45;63.95;;;;;;;;;;5117783;28;20198;-89
2022/04/05 01:48:04;;;;;;;80.78;70.18;;;;;;;;;;5117417;28;20187;-88
2022/04/05 01:50:32;;;;;;;89.32;69.55;;;;;;;;;;5099981;28;20229;-87
2022/04/05 01:53:00;;;;;;;81.30;67.85;;;;;;;;;;5117749;28;20187;-88
2022/04/05 01:55:27;;;;;;;65.85;59.22;;;;;;;;;;5117277;28;20637;-89
2022/04/05 01:57:55;;;;;;;103.15;61.17;;;;;;;;;;5117114;28;20709;-89
2022/04/05 02:00:24;;;;;;;65.10;58.80;;;;;;;;;;5117208;28;20259;-87
2022/04/05 02:02:51;;;;;;;65.45;58.60;;;;;;;;;;5117537;28;20264;-89
2022/04/05 02:05:18;;;;;;;59.83;54.67;;;;;;;;;;5117924;28;20585;-89
2022/04/05 02:07:46;;;;;;;64.25;57.15;;;;;;;;;;5117998;28;20199;-88
2022/04/05 02:10:13;;;;;;;66.75;60.42;;;;;;;;;;5118190;28;20222;-88
2022/04/05 02:12:41;;;;;;;66.03;59.53;;;;;;;;;;5100036;28;20210;-88
2022/04/05 02:15:09;;;;;;;63.80;56.83;;;;;;;;;;5117988;28;20193;-88
2022/04/05 02:17:38;;;;;;;65.47;56.38;;;;;;;;;;5118169;28;20197;-89
2022/04/05 02:20:08;;;;;;;66.43;58.10;;;;;;;;;;5116993;28;20675;-88
2022/04/05 02:22:35;;;;;;;60.42;54.97;;;;;;;;;;5116850;28;20537;-88
2022/04/05 02:25:03;;;;;;;61.00;55.60;;;;;;;;;;5098660;28;20247;-88
2022/04/05 02:27:31;;;;;;;56.88;52.00;;;;;;;;;;5116659;28;20439;-88
2022/04/05 02:29:58;;;;;;;58.33;53.53;;;;;;;;;;5116733;28;20288;-89
2022/04/05 02:32:26;;;;;;;54.47;50.38;;;;;;;;;;5116765;28;20684;-88
2022/04/05 02:34:55;;;;;;;51.42;47.53;;;;;;;;;;5116571;28;20187;-89
2022/04/05 02:37:22;;;;;;;53.55;49.30;;;;;;;;;;5116876;28;20198;-89
2022/04/05 02:39:49;;;;;;;56.17;51.58;;;;;;;;;;5116496;28;20183;-89
2022/04/05 02:42:17;;;;;;;49.60;46.03;;;;;;;;;;5099086;28;20545;-89
2022/04/05 02:44:45;;;;;;;53.70;49.78;;;;;;;;;;5116590;28;20191;-89
2022/04/05 02:47:12;;;;;;;51.30;47.50;;;;;;;;;;5116309;28;20190;-89
2022/04/05 02:49:39;;;;;;;52.47;48.50;;;;;;;;;;5116085;28;20205;-89
2022/04/05 02:52:08;;;;;;;51.38;47.97;;;;;;;;;;5116428;28;20213;-89
2022/04/05 02:54:36;;;;;;;47.75;44.80;;;;;;;;;;5098283;28;20202;-89
2022/04/05 02:57:04;;;;;;;50.42;47.28;;;;;;;;;;5116132;28;20209;-89
2022/04/05 02:59:31;;;;;;;50.78;47.55;;;;;;;;;;5116419;28;20187;-89
2022/04/05 03:01:59;;;;;;;45.63;42.55;;;;;;;;;;5116079;28;20198;-89
2022/04/05 03:04:26;;;;;;;46.60;43.70;;;;;;;;;;5115819;28;20258;-89
2022/04/05 03:06:54;;;;;;;46.92;43.78;;;;;;;;;;5098202;28;20255;-88
2022/04/05 03:09:23;;;;;;;46.13;42.92;;;;;;;;;;5115486;28;20202;-89
2022/04/05 03:11:50;;;;;;;48.08;44.55;;;;;;;;;;5115994;28;20215;-89
2022/04/05 03:14:18;;;;;;;48.15;44.45;;;;;;;;;;5097674;28;20203;-89
2022/04/05 03:16:46;;;;;;;48.85;45.22;;;;;;;;;;5115894;28;20195;-89
2022/04/05 03:19:14;;;;;;;47.90;44.72;;;;;;;;;;5115507;28;20206;-89
2022/04/05 03:21:41;;;;;;;47.78;44.30;;;;;;;;;;5115624;28;20191;-89
2022/04/05 03:24:09;;;;;;;47.55;44.55;;;;;;;;;;5115875;28;20187;-89
2022/04/05 03:26:38;;;;;;;45.53;42.40;;;;;;;;;;5097437;28;20202;-90
2022/04/05 03:29:05;;;;;;;47.08;43.85;;;;;;;;;;5115366;28;20303;-89
2022/04/05 03:31:34;;;;;;;49.60;46.05;;;;;;;;;;5114906;28;20672;-89
2022/04/05 03:34:01;;;;;;;46.95;44.13;;;;;;;;;;5115256;28;20660;-89
2022/04/05 03:36:28;;;;;;;43.45;40.88;;;;;;;;;;5115658;28;20632;-89
2022/04/05 03:38:56;;;;;;;44.58;41.50;;;;;;;;;;5115118;28;20194;-89
2022/04/05 03:41:23;;;;;;;43.50;40.55;;;;;;;;;;5115681;28;20213;-89
2022/04/05 03:43:52;;;;;;;47.58;44.28;;;;;;;;;;5115454;28;20282;-90
2022/04/05 03:46:19;;;;;;;43.80;41.03;;;;;;;;;;5115419;28;20183;-90
2022/04/05 03:48:47;;;;;;;43.92;40.63;;;;;;;;;;5115501;28;20625;-89
2022/04/05 03:51:14;;;;;;;43.58;40.65;;;;;;;;;;5114942;28;20226;-89
2022/04/05 03:53:42;;;;;;;41.83;39.03;;;;;;;;;;5114953;28;20200;-89
2022/04/05 03:56:09;;;;;;;44.58;41.65;;;;;;;;;;5114276;28;20187;-89
2022/04/05 03:58:37;;;;;;;41.78;38.95;;;;;;;;;;5115288;28;20191;-89
2022/04/05 04:01:06;;;;;;;44.47;41.58;;;;;;;;;;5115136;28;20191;-89
2022/04/05 04:03:34;;;;;;;40.90;38.20;;;;;;;;;;5114833;28;20329;-89
2022/04/05 04:06:01;;;;;;;42.22;39.53;;;;;;;;;;5114726;28;20194;-89
2022/04/05 04:08:29;;;;;;;39.83;37.30;;;;;;;;;;5115015;28;20577;-90
2022/04/05 04:10:56;;;;;;;38.72;36.25;;;;;;;;;;5115026;28;20218;-90
2022/04/05 04:13:24;;;;;;;42.60;40.05;;;;;;;;;;5114944;28;20187;-89
2022/04/05 04:15:51;;;;;;;41.35;38.85;;;;;;;;;;5114783;28;20182;-90
2022/04/05 04:18:20;;;;;;;39.97;37.47;;;;;;;;;;5114687;28;20186;-89
2022/04/05 04:20:48;;;;;;;40.80;38.38;;;;;;;;;;5114256;28;20644;-90
2022/04/05 04:23:16;;;;;;;41.50;38.70;;;;;;;;;;5096534;28;20198;-90
2022/04/05 04:25:44;;;;;;;40.25;37.55;;;;;;;;;;5114623;28;20187;-90
2022/04/05 04:28:11;;;;;;;42.83;40.35;;;;;;;;;;5115204;28;20210;-90
2022/04/05 04:30:40;;;;;;;44.10;41.22;;;;;;;;;;5114196;28;20226;-90
2022/04/05 04:33:08;;;;;;;43.60;40.65;;;;;;;;;;5096014;28;20206;-90
2022/04/05 04:35:39;;;;;;;46.30;43.40;;;;;;;;;;5114924;28;20183;-90
2022/04/05 04:38:07;;;;;;;43.15;40.58;;;;;;;;;;5114587;28;20194;-89
2022/04/05 04:40:36;;;;;;;45.92;43.05;;;;;;;;;;5114424;28;20194;-90
2022/04/05 04:43:04;;;;;;;46.50;43.70;;;;;;;;;;5114752;28;20201;-90
2022/04/05 04:45:31;;;;;;;46.05;43.17;;;;;;;;;;5114419;28;20183;-90
2022/04/05 04:47:58;;;;;;;48.28;45.33;;;;;;;;;;5114746;28;20623;-89
2022/04/05 04:50:26;;;;;;;46.50;43.50;;;;;;;;;;5114574;28;20586;-90
2022/04/05 04:52:55;;;;;;;48.47;45.47;;;;;;;;;;5096463;28;20186;-89
2022/04/05 04:55:24;;;;;;;46.50;43.65;;;;;;;;;;5114648;28;20558;-89
2022/04/05 04:57:52;;;;;;;47.47;44.42;;;;;;;;;;5114263;28;20191;-89
2022/04/05 05:00:19;;;;;;;48.95;45.95;;;;;;;;;;5114211;28;20199;-89
2022/04/05 05:02:47;;;;;;;45.45;42.47;;;;;;;;;;5114266;28;20187;-89
2022/04/05 05:05:17;;;;;;;44.83;41.80;;;;;;;;;;5114046;28;20192;-94
2022/04/05 05:07:45;;;;;;;46.28;43.35;;;;;;;;;;5114799;28;20214;-94
2022/04/05 05:10:14;;;;;;;43.25;40.65;;;;;;;;;;5096607;28;20246;-94
2022/04/05 05:12:42;;;;;;;41.65;39.15;;;;;;;;;;5114090;28;20277;-94
2022/04/05 05:15:10;;;;;;;43.28;40.47;;;;;;;;;;5114382;28;20203;-94
2022/04/05 05:17:37;;;;;;;44.03;41.33;;;;;;;;;;5096174;28;20206;-94
2022/04/05 05:20:05;;;;;;;40.13;37.72;;;;;;;;;;5114777;28;20202;-94
2022/04/05 05:22:32;;;;;;;46.25;43.28;;;;;;;;;;5114200;28;20649;-94
2022/04/05 05:25:00;;;;;;;45.08;41.95;;;;;;;;;;5114073;28;20217;-94
2022/04/05 05:27:29;;;;;;;42.00;39.40;;;;;;;;;;5114185;28;20197;-94
2022/04/05 05:29:56;;;;;;;43.35;40.45;;;;;;;;;;5114283;28;20191;-94
2022/04/05 05:32:24;;;;;;;44.65;41.75;;;;;;;;;;5116193;28;20231;-94
2022/04/05 05:34:51;;;;;;;43.97;40.95;;;;;;;;;;5117691;28;20202;-94
2022/04/05 05:37:19;;;;;;;43.10;40.25;;;;;;;;;;5118048;28;20194;-94
2022/04/05 05:39:46;;;;;;;42.72;39.90;;;;;;;;;;5099773;28;20191;-94
2022/04/05 05:42:14;;;;;;;43.17;40.38;;;;;;;;;;5117760;28;20202;-94
2022/04/05 05:44:42;;;;;;;45.40;42.20;;;;;;;;;;5099923;28;20230;-93
2022/04/05 05:47:10;;;;;;;41.88;39.05;;;;;;;;;;5118305;28;20199;-94
2022/04/05 05:49:38;;;;;;;45.50;42.47;;;;;;;;;;5117939;28;20201;-94
2022/04/05 05:52:06;;;;;;;44.13;40.85;;;;;;;;;;5117099;28;20772;-94
2022/04/05 05:54:33;;;;;;;42.05;39.35;;;;;;;;;;5099501;28;20568;-94
2022/04/05 05:57:01;;;;;;;43.25;40.50;;;;;;;;;;5117382;28;20213;-94
2022/04/05 05:59:28;;;;;;;43.88;40.35;;;;;;;;;;5117820;28;20195;-94
2022/04/05 06:01:57;;;;;;;40.90;38.33;;;;;;;;;;5117275;28;20190;-94
2022/04/05 06:04:24;;;;;;;41.55;38.95;;;;;;;;;;5117333;28;20230;-94
2022/04/05 06:06:52;;;;;;;41.55;38.95;;;;;;;;;;5118102;28;20632;-93
2022/04/05 06:09:19;;;;;;;43.55;40.95;;;;;;;;;;5099051;28;20232;-92
2022/04/05 06:11:46;;;;;;;41.05;38.55;;;;;;;;;;5117154;28;20610;-92
2022/04/05 06:14:14;;;;;;;41.13;38.53;;;;;;;;;;5117153;28;20191;-93
2022/04/05 06:16:41;;;;;;;42.22;39.53;;;;;;;;;;5117477;28;20187;-92
2022/04/05 06:19:10;;;;;;;42.00;39.30;;;;;;;;;;5117021;28;20203;-93
2022/04/05 06:21:37;;;;;;;40.95;38.35;;;;;;;;;;5117101;28;20210;-92
2022/04/05 06:24:05;;;;;;;44.83;42.03;;;;;;;;;;5116906;28;20667;-93
2022/04/05 06:26:32;;;;;;;39.22;36.58;;;;;;;;;;5117233;28;20578;-91
2022/04/05 06:29:00;;;;;;;39.20;36.80;;;;;;;;;;5117281;28;20190;-93
2022/04/05 06:31:27;;;;;;;42.75;39.67;;;;;;;;;;5116563;28;20230;-92
2022/04/05 06:33:57;;;;;;;38.72;36.30;;;;;;;;;;5099193;28;20198;-93
2022/04/05 06:36:25;;;;;;;44.38;41.50;;;;;;;;;;5116513;28;20202;-93
2022/04/05 06:38:53;;;;;;;40.78;38.08;;;;;;;;;;5096047;28;20194;-92
2022/04/05 06:41:21;;;;;;;35.47;33.40;;;;;;;;;;5116831;28;20548;-93
2022/04/05 06:43:48;;;;;;;40.80;38.40;;;;;;;;;;5115890;28;20194;-88
2022/04/05 06:46:16;;;;;;;37.30;35.00;;;;;;;;;;5116563;28;20210;-91
2022/04/05 06:48:44;;;;;;;38.88;36.28;;;;;;;;;;5116587;28;20191;-91
2022/04/05 06:51:11;;;;;;;37.50;34.90;;;;;;;;;;5116662;28;20587;-92
2022/04/05 06:53:40;;;;;;;38.70;36.30;;;;;;;;;;5116733;28;20412;-91
2022/04/05 06:56:09;;;;;;;40.03;37.22;;;;;;;;;;5098034;28;20255;-90
2022/04/05 06:58:36;;;;;;;39.28;36.97;;;;;;;;;;5115851;28;20664;-87
2022/04/05 07:01:04;;;;;;;42.78;40.08;;;;;;;;;;5116006;28;20225;-87
2022/04/05 07:03:32;;;;;;;38.25;36.05;;;;;;;;;;5115765;28;20230;-86
2022/04/05 07:05:59;;;;;;;41.63;38.97;;;;;;;;;;5115554;28;20632;-86
2022/04/05 07:08:26;;;;;;;39.95;37.33;;;;;;;;;;5115814;28;20195;-88
2022/04/05 07:10:55;;;;;;;39.90;37.50;;;;;;;;;;5115562;28;20195;-85
2022/04/05 07:13:23;;;;;;;40.22;37.63;;;;;;;;;;5115932;28;20536;-86
2022/04/05 07:15:50;;;;;;;40.13;37.70;;;;;;;;;;5115386;28;20633;-84
2022/04/05 07:18:18;;;;;;;41.03;38.38;;;;;;;;;;5097305;28;20300;-87
2022/04/05 07:20:46;;;;;;;39.55;37.25;;;;;;;;;;5098117;28;20659;-86
2022/04/05 07:23:15;;;;;;;38.20;35.80;;;;;;;;;;5115585;28;20209;-87
2022/04/05 07:25:43;;;;;;;39.85;37.35;;;;;;;;;;5115670;28;20248;-87
2022/04/05 07:28:12;;;;;;;41.83;39.20;;;;;;;;;;5115532;28;20209;-87
2022/04/05 07:30:39;;;;;;;41.95;39.45;;;;;;;;;;5115734;28;20222;-88
2022/04/05 07:33:07;;;;;;;41.97;38.95;;;;;;;;;;5115102;28;20223;-86
2022/04/05 07:35:34;;;;;;;41.43;38.83;;;;;;;;;;5115163;28;20587;-96
2022/04/05 07:38:02;;;;;;;40.17;37.58;;;;;;;;;;5115702;28;20428;-92
2022/04/05 07:40:47;;;;;;;41.08;38.28;;;;;;;;;;5097552;28;20207;-87
2022/04/05 07:43:17;;;;;;;43.20;40.40;;;;;;;;;;5115775;28;20534;-92
2022/04/05 07:45:48;;;;;;;42.30;39.55;;;;;;;;;;5116114;28;20651;-93
2022/04/05 07:48:15;;;;;;;42.05;39.35;;;;;;;;;;5115621;28;20191;-91
2022/04/05 07:50:43;;;;;;;41.90;38.90;;;;;;;;;;5097317;28;20203;-91
2022/04/05 07:53:10;;;;;;;39.17;36.77;;;;;;;;;;5115141;28;20491;-91
2022/04/05 07:55:38;;;;;;;38.58;35.97;;;;;;;;;;5115984;28;20431;-92
2022/04/05 07:58:05;;;;;;;38.75;36.38;;;;;;;;;;5115913;28;20202;-93
2022/04/05 08:00:34;;;;;;;39.20;36.70;;;;;;;;;;5115912;28;20194;-92
2022/04/05 08:03:02;;;;;;;38.38;36.00;;;;;;;;;;5115313;28;20879;-93
2022/04/05 08:05:29;;;;;;;35.05;32.85;;;;;;;;;;5115008;28;20190;-93
2022/04/05 08:07:57;;;;;;;36.30;34.30;;;;;;;;;;5115200;28;20225;-94
2022/04/05 08:10:24;;;;;;;36.08;33.97;;;;;;;;;;5096896;28;20431;-95
2022/04/05 08:12:52;;;;;;;35.08;32.92;;;;;;;;;;5113793;28;20249;-92
2022/04/05 08:15:21;;;;;;;35.90;33.90;;;;;;;;;;5114961;28;20187;-93
2022/04/05 08:17:50;;;;;;;37.42;34.75;;;;;;;;;;5114952;28;20453;-92
2022/04/05 08:20:18;;;;;;;36.80;34.60;;;;;;;;;;5115248;28;20199;-92
2022/04/05 08:22:46;;;;;;;34.93;32.83;;;;;;;;;;5115075;28;20468;-92
2022/04/05 08:25:15;;;;;;;35.50;33.17;;;;;;;;;;5114689;28;20892;-92
2022/04/05 08:27:43;;;;;;;34.05;32.03;;;;;;;;;;5097336;28;20444;-92
2022/04/05 08:30:15;;;;;;;32.90;30.90;;;;;;;;;;5115259;28;20238;-92
2022/04/05 08:32:42;;;;;;;35.17;33.27;;;;;;;;;;5096476;28;20234;-95
2022/04/05 08:35:12;;;;;;;35.15;33.00;;;;;;;;;;5114483;28;20441;-88
2022/04/05 08:37:40;;;;;;;35.08;32.67;;;;;;;;;;5114820;28;20198;-94
2022/04/05 08:40:08;;;;;;;36.45;34.25;;;;;;;;;;5114700;28;20187;-94
2022/04/05 08:42:36;;;;;;;34.80;32.53;;;;;;;;;;5114941;28;20226;-94
2022/04/05 08:45:06;;;;;;;34.33;32.17;;;;;;;;;;5114449;28;20198;-94
2022/04/05 08:47:35;;;;;;;35.08;33.00;;;;;;;;;;5114622;28;20208;-94
2022/04/05 08:50:03;;;;;;;35.72;32.97;;;;;;;;;;5114826;28;20187;-94
2022/04/05 08:52:34;;;;;;;34.88;32.80;;;;;;;;;;5114664;28;20249;-95
2022/04/05 08:55:02;;;;;;;34.80;32.65;;;;;;;;;;5114496;28;20309;-94
2022/04/05 08:57:29;;;;;;;38.90;35.63;;;;;;;;;;5096292;28;20198;-94
2022/04/05 08:59:56;;;;;;;36.17;34.07;;;;;;;;;;5114479;28;20440;-94
2022/04/05 09:02:28;;;;;;;35.20;33.10;;;;;;;;;;5114425;28;20439;-95
2022/04/05 09:04:55;;;;;;;34.53;32.50;;;;;;;;;;5096328;28;20483;-94
2022/04/05 09:07:24;;;;;;;35.97;33.57;;;;;;;;;;5098557;28;20829;-94
2022/04/05 09:10:09;;;;;;;35.00;32.80;;;;;;;;;;5118254;28;20915;-94
2022/04/05 09:12:42;;;;;;;33.37;31.53;;;;;;;;;;5118284;28;20222;-94
2022/04/05 09:15:10;;;;;;;33.13;31.23;;;;;;;;;;5100875;28;20418;-95
2022/04/05 09:17:42;;;;;;;32.20;30.30;;;;;;;;;;5100311;28;20470;-96
2022/04/05 09:20:10;;;;;;;30.43;28.63;;;;;;;;;;5118511;28;20753;-95
2022/04/05 09:22:37;;;;;;;30.27;28.30;;;;;;;;;;5118097;28;20464;-95
2022/04/05 09:25:05;;;;;;;30.50;28.70;;;;;;;;;;5100452;28;20506;-95
2022/04/05 09:27:49;;;;;;;29.50;27.73;;;;;;;;;;5118540;28;20207;-95
2022/04/05 09:30:17;;;;;;;30.90;28.60;;;;;;;;;;5118136;28;20533;-95
2022/04/05 09:32:47;;;;;;;30.95;29.08;;;;;;;;;;5117870;28;20225;-96
2022/04/05 09:35:15;;;;;;;29.37;27.57;;;;;;;;;;5118505;28;20206;-96
2022/04/05 09:37:43;;;;;;;30.07;28.23;;;;;;;;;;5117688;28;20418;-95
2022/04/05 09:40:17;;;;;;;31.60;29.40;;;;;;;;;;5117590;28;20423;-96
2022/04/05 09:43:00;;;;;;;32.27;30.10;;;;;;;;;;5117978;28;20481;-96
2022/04/05 09:45:44;;;;;;;32.63;30.50;;;;;;;;;;5117915;28;20485;-96
2022/04/05 09:48:12;;;;;;;34.43;31.53;;;;;;;;;;5099928;28;20430;-96
2022/04/05 09:50:59;;;;;;;35.23;32.73;;;;;;;;;;5117661;28;20415;-96
2022/04/05 09:53:27;;;;;;;34.20;32.20;;;;;;;;;;5117744;28;20461;-95
2022/04/05 09:56:04;;;;;;;32.50;30.50;;;;;;;;;;5117594;28;20431;-95
2022/04/05 09:58:31;;;;;;;30.65;28.75;;;;;;;;;;5099432;28;20247;-96
2022/04/05 10:01:07;;;;;;;29.67;27.97;;;;;;;;;;5117502;28;20190;-96
2022/04/05 10:03:35;;;;;;;28.87;27.27;;;;;;;;;;5116513;28;20463;-95
2022/04/05 10:06:02;;;;;;;30.87;29.07;;;;;;;;;;5117271;28;20437;-95
2022/04/05 10:08:30;;;;;;;26.70;25.33;;;;;;;;;;5117154;28;20439;-96
2022/04/05 10:10:58;;;;;;;27.07;25.47;;;;;;;;;;5099536;28;20424;-95
2022/04/05 10:13:26;;;;;;;28.80;27.30;;;;;;;;;;5117155;28;20455;-93
2022/04/05 10:15:54;;;;;;;28.70;27.10;;;;;;;;;;5098861;28;20460;-93
2022/04/05 10:18:23;;;;;;;28.83;27.17;;;;;;;;;;5115871;28;20412;-93
2022/04/05 10:20:51;;;;;;;30.13;28.43;;;;;;;;;;5117151;28;20193;-93
2022/04/05 10:23:20;;;;;;;27.33;25.83;;;;;;;;;;5117235;28;20442;-93
2022/04/05 10:25:50;;;;;;;31.40;29.70;;;;;;;;;;5117172;28;20866;-94
2022/04/05 10:28:20;;;;;;;32.00;30.10;;;;;;;;;;5117020;28;20403;-93
2022/04/05 10:30:53;;;;;;;34.50;32.33;;;;;;;;;;5116706;28;20479;-93
2022/04/05 10:33:24;;;;;;;30.13;28.53;;;;;;;;;;5117054;28;20571;-93
2022/04/05 10:35:55;;;;;;;31.70;29.80;;;;;;;;;;5117059;28;20475;-93
2022/04/05 10:38:22;;;;;;;33.07;31.10;;;;;;;;;;5117008;28;20500;-93
2022/04/05 10:41:11;;;;;;;32.00;30.17;;;;;;;;;;5098850;28;20506;-93
2022/04/05 10:43:39;;;;;;;32.87;30.97;;;;;;;;;;5117522;28;20229;-92
2022/04/05 10:46:06;;;;;;;31.87;30.17;;;;;;;;;;5116734;28;20540;-93
2022/04/05 10:48:34;;;;;;;29.73;28.23;;;;;;;;;;5116424;28;20426;-94
2022/04/05 10:51:30;;;;;;;31.50;29.80;;;;;;;;;;5116045;28;20460;-93
2022/04/05 10:54:19;;;;;;;29.17;27.57;;;;;;;;;;5098516;28;20454;-93
2022/04/05 10:57:01;;;;;;;29.20;27.80;;;;;;;;;;5116623;28;20457;-93
2022/04/05 10:59:46;;;;;;;27.92;26.63;;;;;;;;;;5115550;28;20464;-92
2022/04/05 11:02:28;;;;;;;31.13;29.57;;;;;;;;;;5116533;28;20609;-93
2022/04/05 11:05:01;;;;;;;29.30;27.70;;;;;;;;;;5094459;28;21032;-93
2022/04/05 11:07:30;;;;;;;30.40;28.80;;;;;;;;;;5095665;28;20460;-93
2022/04/05 11:10:00;;;;;;;31.83;30.07;;;;;;;;;;5095598;28;20452;-93
2022/04/05 11:12:30;;;;;;;32.60;30.80;;;;;;;;;;5095783;28;20450;-93
2022/04/05 11:14:58;;;;;;;33.43;31.40;;;;;;;;;;5095396;28;20449;-93
2022/04/05 11:17:26;;;;;;;32.47;30.77;;;;;;;;;;5096893;28;20436;-93
2022/04/05 11:19:57;;;;;;;31.50;29.70;;;;;;;;;;5096635;28;20458;-93
2022/04/05 11:22:30;;;;;;;32.53;30.67;;;;;;;;;;5096668;28;20437;-93
2022/04/05 11:25:00;;;;;;;30.88;29.15;;;;;;;;;;5096804;28;20440;-94
2022/04/05 11:27:29;;;;;;;30.63;29.03;;;;;;;;;;5095768;28;20188;-93
2022/04/05 11:30:15;;;;;;;30.87;29.07;;;;;;;;;;5095558;28;20505;-93
2022/04/05 11:32:57;;;;;;;28.70;27.20;;;;;;;;;;5095119;28;20464;-93
2022/04/05 11:35:27;;;;;;;26.60;25.30;;;;;;;;;;5095361;28;20427;-93
2022/04/05 11:37:56;;;;;;;29.17;27.77;;;;;;;;;;5095733;28;20895;-93
2022/04/05 11:40:24;;;;;;;27.23;25.73;;;;;;;;;;5093942;28;20423;-94
2022/04/05 11:42:51;;;;;;;25.03;23.73;;;;;;;;;;5095432;28;20420;-93
2022/04/05 11:45:31;;;;;;;25.17;23.77;;;;;;;;;;5096000;28;20886;-93
2022/04/05 11:47:59;;;;;;;22.23;21.13;;;;;;;;;;5095458;28;20431;-93
2022/04/05 11:50:26;;;;;;;24.07;22.77;;;;;;;;;;5094595;28;20474;-93
2022/04/05 11:52:55;;;;;;;27.00;25.50;;;;;;;;;;5095521;28;20456;-93
2022/04/05 11:58:11;;;;;;;27.60;26.10;;;;;;;;;;5095465;28;20935;-94
2022/04/05 12:00:51;;;;;;;26.83;25.33;;;;;;;;;;5095706;28;20431;-93
2022/04/05 12:03:19;;;;;;;25.27;23.80;;;;;;;;;;5100481;28;20465;-93
2022/04/05 12:05:47;;;;;;;23.87;22.60;;;;;;;;;;5115869;28;20436;-93
2022/04/05 12:08:16;;;;;;;26.07;24.60;;;;;;;;;;5115797;28;20812;-93
2022/04/05 12:10:45;;;;;;;27.00;25.40;;;;;;;;;;5115366;28;20496;-93
2022/04/05 12:13:13;;;;;;;25.20;23.70;;;;;;;;;;5096427;28;20538;-93
2022/04/05 12:15:40;;;;;;;26.57;24.97;;;;;;;;;;5115072;28;20410;-93
2022/04/05 12:18:18;;;;;;;26.30;24.70;;;;;;;;;;5114934;28;20404;-93
2022/04/05 12:20:55;;;;;;;27.10;25.30;;;;;;;;;;5115069;28;20432;-92
2022/04/05 12:23:24;;;;;;;27.10;25.43;;;;;;;;;;5115499;28;20423;-93
2022/04/05 12:26:05;;;;;;;24.60;23.20;;;;;;;;;;5114954;28;20441;-92
2022/04/05 12:28:32;;;;;;;24.43;23.00;;;;;;;;;;5115992;28;20437;-93
2022/04/05 12:31:21;;;;;;;25.30;23.70;;;;;;;;;;5116567;28;20442;-94
2022/04/05 12:33:56;;;;;;;26.90;25.00;;;;;;;;;;5109732;28;20516;-93
2022/04/05 12:36:24;;;;;;;25.27;23.67;;;;;;;;;;5115076;28;20933;-93
2022/04/05 12:38:53;;;;;;;24.47;22.83;;;;;;;;;;5114625;28;20487;-93
2022/04/05 12:41:22;;;;;;;23.77;22.37;;;;;;;;;;5114152;28;20427;-92
2022/04/05 12:44:05;;;;;;;28.00;26.20;;;;;;;;;;5114169;28;20458;-92
2022/04/05 12:46:37;;;;;;;26.33;24.73;;;;;;;;;;5114608;28;20460;-93
2022/04/05 12:49:14;;;;;;;25.70;23.80;;;;;;;;;;5114697;28;20421;-93
2022/04/05 12:51:42;;;;;;;26.30;24.60;;;;;;;;;;5096402;28;20476;-93
2022/04/05 12:57:20;;;;;;;25.27;23.47;;;;;;;;;;5112155;27;20600;-96
2022/04/05 12:59:49;;;;;;;24.13;22.70;;;;;;;;;;5111866;28;20408;-96
2022/04/05 13:02:17;;;;;;;24.50;23.00;;;;;;;;;;5111395;28;20411;-96
2022/04/05 13:04:44;;;;;;;24.57;22.97;;;;;;;;;;5111877;28;20408;-96
2022/04/05 13:07:12;;;;;;;26.03;24.10;;;;;;;;;;5111982;28;20408;-95
2022/04/05 13:09:39;;;;;;;25.77;24.30;;;;;;;;;;5111658;28;20460;-93
2022/04/05 13:12:10;;;;;;;23.63;22.23;;;;;;;;;;5111818;27;20439;-94
2022/04/05 13:14:39;;;;;;;25.97;24.37;;;;;;;;;;5111614;28;20407;-92
2022/04/05 13:17:08;;;;;;;22.30;21.10;;;;;;;;;;5112946;28;20489;-93
2022/04/05 13:19:35;;;;;;;23.00;21.80;;;;;;;;;;5113792;28;20449;-93
2022/04/05 13:22:03;;;;;;;22.80;21.60;;;;;;;;;;5113430;28;20420;-93
2022/04/05 13:24:40;;;;;;;25.13;23.67;;;;;;;;;;5113397;28;20527;-93
2022/04/05 13:27:08;;;;;;;23.77;22.37;;;;;;;;;;5112863;28;20934;-93
2022/04/05 13:29:36;;;;;;;23.20;21.53;;;;;;;;;;5113019;27;20445;-93
2022/04/05 13:32:06;;;;;;;23.90;22.60;;;;;;;;;;5112490;27;20432;-94
2022/04/05 13:34:36;;;;;;;23.97;22.43;;;;;;;;;;5111566;28;20433;-93
2022/04/05 13:37:03;;;;;;;23.03;21.57;;;;;;;;;;5111266;28;20487;-93
2022/04/05 13:39:33;;;;;;;25.53;23.87;;;;;;;;;;5111334;28;20925;-93
2022/04/05 13:42:01;;;;;;;22.50;21.23;;;;;;;;;;5111573;27;20833;-93
2022/04/05 13:44:28;;;;;;;23.20;21.73;;;;;;;;;;5111581;28;20813;-93
2022/04/05 13:46:56;;;;;;;22.47;21.07;;;;;;;;;;5110773;28;20442;-93
2022/04/05 13:49:25;;;;;;;24.07;22.50;;;;;;;;;;5110114;28;20400;-93
2022/04/05 13:51:54;;;;;;;23.63;22.13;;;;;;;;;;5111362;28;20469;-93
2022/04/05 13:54:21;;;;;;;23.07;21.67;;;;;;;;;;5111072;28;20408;-93
2022/04/05 13:56:48;;;;;;;22.70;21.23;;;;;;;;;;5111094;28;20474;-93
2022/04/05 13:59:16;;;;;;;21.77;20.37;;;;;;;;;;5111443;28;20414;-93
2022/04/05 14:01:44;;;;;;;25.70;23.80;;;;;;;;;;5110127;28;20450;-92
2022/04/05 14:04:11;;;;;;;24.17;22.47;;;;;;;;;;5110603;28;21181;-92
2022/04/05 14:06:41;;;;;;;22.47;21.07;;;;;;;;;;5107171;28;20431;-93
2022/04/05 14:09:08;;;;;;;21.47;20.27;;;;;;;;;;5097148;27;20439;-93
2022/04/05 14:11:36;;;;;;;20.53;19.40;;;;;;;;;;5097169;28;20578;-94
2022/04/05 14:14:04;;;;;;;21.20;19.93;;;;;;;;;;5096297;28;20473;-93
2022/04/05 14:16:32;;;;;;;21.90;20.60;;;;;;;;;;5097152;28;20480;-93
2022/04/05 14:18:59;;;;;;;19.90;18.73;;;;;;;;;;5097096;27;20439;-93
2022/04/05 14:21:27;;;;;;;21.10;19.90;;;;;;;;;;5097123;28;20464;-93
2022/04/05 14:23:56;;;;;;;20.50;19.30;;;;;;;;;;5096781;28;20770;-94
2022/04/05 14:26:23;;;;;;;21.80;20.40;;;;;;;;;;5096547;28;20405;-93
2022/04/05 14:28:50;;;;;;;19.17;18.07;;;;;;;;;;5096811;28;20428;-93
2022/04/05 14:31:18;;;;;;;21.17;19.60;;;;;;;;;;5096555;28;20459;-93
2022/04/05 14:33:45;;;;;;;20.27;19.17;;;;;;;;;;5096744;28;20503;-92